createdAt,value
2023-06-30T00:00:37.986Z,9.40
2023-06-30T00:01:41.314Z,8.98
2023-06-30T00:02:47.673Z,9.33
2023-06-30T00:03:50.458Z,9.27
2023-06-30T00:04:55.086Z,9.27
2023-06-30T00:05:57.354Z,9.12
2023-06-30T00:07:00.863Z,9.22
2023-06-30T00:08:04.484Z,9.13
2023-06-30T00:09:09.139Z,9.50
2023-06-30T00:10:12.851Z,9.65
2023-06-30T00:11:15.464Z,9.40
2023-06-30T00:12:18.913Z,9.85
2023-06-30T00:13:21.118Z,9.92
2023-06-30T00:14:25.028Z,9.40
2023-06-30T00:15:27.225Z,9.37
2023-06-30T00:16:31.564Z,9.53
2023-06-30T00:17:33.886Z,9.43
2023-06-30T00:18:37.355Z,9.12
2023-06-30T00:19:39.514Z,9.17
2023-06-30T00:20:43.963Z,9.28
2023-06-30T00:21:46.223Z,9.00
2023-06-30T00:22:49.379Z,8.88
2023-06-30T00:23:51.572Z,9.17
2023-06-30T00:24:56.417Z,9.07
2023-06-30T00:25:58.728Z,9.15
2023-06-30T00:27:01.990Z,8.93
2023-06-30T00:28:04.608Z,8.88
2023-06-30T00:29:08.274Z,8.83
2023-06-30T00:30:10.966Z,9.08
2023-06-30T00:31:14.390Z,8.78
2023-06-30T00:32:16.703Z,9.37
2023-06-30T00:33:19.873Z,9.25
2023-06-30T00:34:22.069Z,9.28
2023-06-30T00:35:25.189Z,9.25
2023-06-30T00:36:30.194Z,9.45
2023-06-30T00:37:33.475Z,9.83
2023-06-30T00:38:35.743Z,9.27
2023-06-30T00:39:38.921Z,8.90
2023-06-30T00:40:41.073Z,9.30
2023-06-30T00:41:44.244Z,8.70
2023-06-30T00:42:46.490Z,9.20
2023-06-30T00:43:49.632Z,8.93
2023-06-30T00:44:51.820Z,9.12
2023-06-30T00:45:55.004Z,8.95
2023-06-30T00:47:01.009Z,9.60
2023-06-30T00:48:05.185Z,9.18
2023-06-30T00:49:07.458Z,9.47
2023-06-30T00:50:11.467Z,8.62
2023-06-30T00:51:14.115Z,9.27
2023-06-30T00:52:18.916Z,8.88
2023-06-30T00:53:21.109Z,8.55
2023-06-30T00:54:24.339Z,8.48
2023-06-30T00:55:27.187Z,9.18
2023-06-30T00:56:30.391Z,9.28
2023-06-30T00:57:32.645Z,9.78
2023-06-30T00:58:35.783Z,9.13
2023-06-30T00:59:37.970Z,9.30
2023-06-30T01:00:41.107Z,9.47
2023-06-30T01:01:50.272Z,9.15
2023-06-30T01:03:02.538Z,9.73
2023-06-30T01:04:14.085Z,9.73
2023-06-30T01:05:21.293Z,9.47
2023-06-30T01:06:29.723Z,9.02
2023-06-30T01:07:40.495Z,9.40
2023-06-30T01:08:46.408Z,9.60
2023-06-30T01:09:56.802Z,9.32
2023-06-30T01:10:59.387Z,8.85
2023-06-30T01:12:02.837Z,9.43
2023-06-30T01:13:06.766Z,9.40
2023-06-30T01:14:11.113Z,10.02
2023-06-30T01:15:15.031Z,9.38
2023-06-30T01:16:20.448Z,9.67
2023-06-30T01:17:26.322Z,9.13
2023-06-30T01:18:33.782Z,9.65
2023-06-30T01:19:39.352Z,10.12
2023-06-30T01:20:43.189Z,9.87
2023-06-30T01:21:47.894Z,9.57
2023-06-30T01:22:54.843Z,10.00
2023-06-30T01:23:59.990Z,9.72
2023-06-30T01:25:08.154Z,9.32
2023-06-30T01:26:10.772Z,9.62
2023-06-30T01:27:14.354Z,9.52
2023-06-30T01:28:17.582Z,9.58
2023-06-30T01:29:22.097Z,9.68
2023-06-30T01:30:25.422Z,9.83
2023-06-30T01:31:32.192Z,9.60
2023-06-30T01:32:34.626Z,9.00
2023-06-30T01:33:39.224Z,10.08
2023-06-30T01:34:41.369Z,10.07
2023-06-30T01:35:45.477Z,9.77
2023-06-30T01:36:49.022Z,10.12
2023-06-30T01:37:54.349Z,9.78
2023-06-30T01:38:56.612Z,10.20
2023-06-30T01:40:00.813Z,9.70
2023-06-30T01:41:03.293Z,9.67
2023-06-30T01:42:07.706Z,9.87
2023-06-30T01:43:10.241Z,9.40
2023-06-30T01:44:14.037Z,10.07
2023-06-30T01:45:16.867Z,10.22
2023-06-30T01:46:20.133Z,10.27
2023-06-30T01:47:22.672Z,9.82
2023-06-30T01:48:26.464Z,10.30
2023-06-30T01:49:29.599Z,9.85
2023-06-30T01:50:34.094Z,10.35
2023-06-30T01:51:36.318Z,10.02
2023-06-30T01:52:39.436Z,9.80
2023-06-30T01:53:44.111Z,9.88
2023-06-30T01:54:46.411Z,9.67
2023-06-30T01:55:50.143Z,9.88
2023-06-30T01:56:52.357Z,9.73
2023-06-30T01:57:55.626Z,9.63
2023-06-30T01:58:57.827Z,9.82
2023-06-30T02:00:01.153Z,9.83
2023-06-30T02:01:03.385Z,10.08
2023-06-30T02:02:06.812Z,10.05
2023-06-30T02:03:09.058Z,9.37
2023-06-30T02:04:12.346Z,10.05
2023-06-30T02:05:14.569Z,9.78
2023-06-30T02:06:17.743Z,10.63
2023-06-30T02:07:19.997Z,9.88
2023-06-30T02:08:23.119Z,10.10
2023-06-30T02:09:38.853Z,10.05
2023-06-30T02:10:49.835Z,9.65
2023-06-30T02:11:52.049Z,10.38
2023-06-30T02:12:55.217Z,10.22
2023-06-30T02:13:57.397Z,10.05
2023-06-30T02:15:00.546Z,10.58
2023-06-30T02:16:03.118Z,9.98
2023-06-30T02:17:07.851Z,9.83
2023-06-30T02:18:09.973Z,10.28
2023-06-30T02:19:13.185Z,9.98
2023-06-30T02:20:15.417Z,9.82
2023-06-30T02:21:18.577Z,10.12
2023-06-30T02:22:20.748Z,10.62
2023-06-30T02:23:24.082Z,10.28
2023-06-30T02:24:27.696Z,10.05
2023-06-30T02:25:30.865Z,10.53
2023-06-30T02:26:33.050Z,10.03
2023-06-30T02:27:36.230Z,10.75
2023-06-30T02:28:38.404Z,10.02
2023-06-30T02:29:41.577Z,10.22
2023-06-30T02:30:44.215Z,9.95
2023-06-30T02:31:47.597Z,10.03
2023-06-30T02:32:49.983Z,10.37
2023-06-30T02:33:54.018Z,9.83
2023-06-30T02:34:56.261Z,9.67
2023-06-30T02:35:59.525Z,9.93
2023-06-30T02:37:02.243Z,9.98
2023-06-30T02:38:06.564Z,10.08
2023-06-30T02:39:08.753Z,9.92
2023-06-30T02:40:13.593Z,10.00
2023-06-30T02:41:15.829Z,10.28
2023-06-30T02:42:18.962Z,10.58
2023-06-30T02:43:21.107Z,11.15
2023-06-30T02:44:24.292Z,11.55
2023-06-30T02:45:27.454Z,10.97
2023-06-30T02:46:29.762Z,10.65
2023-06-30T02:47:33.069Z,11.00
2023-06-30T02:48:35.227Z,10.73
2023-06-30T02:49:38.390Z,10.53
2023-06-30T02:50:40.556Z,10.42
2023-06-30T02:51:43.725Z,10.10
2023-06-30T02:52:45.992Z,10.48
2023-06-30T02:53:49.158Z,10.77
2023-06-30T02:54:51.427Z,10.38
2023-06-30T02:55:55.911Z,10.58
2023-06-30T02:56:58.127Z,10.17
2023-06-30T02:58:01.536Z,10.08
2023-06-30T02:59:03.817Z,10.02
2023-06-30T03:00:09.257Z,10.48
2023-06-30T03:01:11.550Z,10.58
2023-06-30T03:02:14.915Z,11.02
2023-06-30T03:03:17.278Z,10.62
2023-06-30T03:04:20.721Z,10.30
2023-06-30T03:05:23.010Z,10.25
2023-06-30T03:06:26.173Z,10.18
2023-06-30T03:07:28.467Z,10.30
2023-06-30T03:08:32.174Z,10.05
2023-06-30T03:09:34.448Z,10.23
2023-06-30T03:10:37.570Z,10.48
2023-06-30T03:11:41.182Z,10.68
2023-06-30T03:12:44.373Z,10.28
2023-06-30T03:13:47.592Z,10.10
2023-06-30T03:14:50.725Z,10.40
2023-06-30T03:15:52.914Z,10.27
2023-06-30T03:16:56.108Z,10.58
2023-06-30T03:17:58.387Z,10.33
2023-06-30T03:19:01.574Z,10.15
2023-06-30T03:20:09.870Z,10.22
2023-06-30T03:21:13.042Z,10.03
2023-06-30T03:22:15.213Z,10.43
2023-06-30T03:23:19.935Z,9.90
2023-06-30T03:24:22.116Z,10.28
2023-06-30T03:25:25.550Z,10.38
2023-06-30T03:26:29.606Z,10.18
2023-06-30T03:27:34.666Z,10.12
2023-06-30T03:28:36.908Z,10.73
2023-06-30T03:29:40.091Z,10.78
2023-06-30T03:30:42.395Z,10.65
2023-06-30T03:31:45.541Z,10.85
2023-06-30T03:32:47.750Z,10.78
2023-06-30T03:33:50.894Z,9.98
2023-06-30T03:34:53.478Z,10.15
2023-06-30T03:35:56.693Z,10.35
2023-06-30T03:36:59.863Z,10.50
2023-06-30T03:38:02.006Z,10.37
2023-06-30T03:39:06.285Z,10.47
2023-06-30T03:40:09.505Z,10.18
2023-06-30T03:41:12.760Z,10.48
2023-06-30T03:42:15.011Z,10.57
2023-06-30T03:43:22.345Z,10.38
2023-06-30T03:44:25.526Z,10.40
2023-06-30T03:45:27.690Z,10.35
2023-06-30T03:46:30.900Z,10.15
2023-06-30T03:47:33.104Z,10.83
2023-06-30T03:48:36.361Z,11.35
2023-06-30T03:49:38.523Z,10.82
2023-06-30T03:50:43.468Z,11.38
2023-06-30T03:51:45.827Z,11.15
2023-06-30T03:52:49.004Z,11.73
2023-06-30T03:53:51.448Z,10.65
2023-06-30T03:54:54.910Z,10.60
2023-06-30T03:55:58.996Z,10.50
2023-06-30T03:57:02.176Z,10.93
2023-06-30T03:58:04.306Z,10.55
2023-06-30T03:59:09.958Z,11.23
2023-06-30T04:00:13.824Z,11.15
2023-06-30T04:01:17.084Z,11.68
2023-06-30T04:02:19.290Z,12.28
2023-06-30T04:03:24.283Z,11.68
2023-06-30T04:04:28.179Z,11.80
2023-06-30T04:05:31.452Z,12.35
2023-06-30T04:06:34.831Z,11.88
2023-06-30T04:07:38.750Z,11.37
2023-06-30T04:08:41.140Z,11.47
2023-06-30T04:09:44.312Z,11.60
2023-06-30T04:10:46.462Z,11.70
2023-06-30T04:11:50.515Z,11.87
2023-06-30T04:12:52.669Z,11.68
2023-06-30T04:13:55.875Z,12.07
2023-06-30T04:14:59.398Z,12.68
2023-06-30T04:16:02.691Z,12.02
2023-06-30T04:17:05.573Z,11.65
2023-06-30T04:18:08.738Z,11.40
2023-06-30T04:19:10.957Z,12.03
2023-06-30T04:20:16.988Z,12.18
2023-06-30T04:21:19.166Z,11.68
2023-06-30T04:22:23.165Z,11.95
2023-06-30T04:23:26.305Z,11.47
2023-06-30T04:24:28.450Z,11.93
2023-06-30T04:25:31.708Z,12.12
2023-06-30T04:26:34.339Z,12.10
2023-06-30T04:27:37.879Z,11.83
2023-06-30T04:28:40.328Z,11.30
2023-06-30T04:29:43.537Z,11.18
2023-06-30T04:30:48.426Z,11.42
2023-06-30T04:31:51.734Z,11.12
2023-06-30T04:32:53.970Z,10.85
2023-06-30T04:33:57.187Z,10.28
2023-06-30T04:34:59.401Z,10.78
2023-06-30T04:36:02.878Z,10.73
2023-06-30T04:37:05.390Z,10.92
2023-06-30T04:38:08.558Z,10.55
2023-06-30T04:39:10.823Z,10.48
2023-06-30T04:40:14.034Z,9.90
2023-06-30T04:41:16.715Z,10.70
2023-06-30T04:42:19.996Z,10.60
2023-06-30T04:43:22.143Z,10.37
2023-06-30T04:44:25.386Z,10.25
2023-06-30T04:45:27.696Z,10.03
2023-06-30T04:46:32.226Z,9.58
2023-06-30T04:47:35.239Z,9.92
2023-06-30T04:48:38.397Z,10.28
2023-06-30T04:49:40.585Z,9.88
2023-06-30T04:50:43.836Z,9.55
2023-06-30T04:51:45.987Z,9.58
2023-06-30T04:52:49.113Z,10.38
2023-06-30T04:53:51.547Z,10.25
2023-06-30T04:54:56.212Z,10.62
2023-06-30T04:55:58.411Z,9.27
2023-06-30T04:57:01.630Z,10.15
2023-06-30T04:58:04.030Z,10.05
2023-06-30T04:59:07.248Z,10.05
2023-06-30T05:00:10.632Z,10.27
2023-06-30T05:01:13.988Z,9.50
2023-06-30T05:02:17.629Z,10.10
2023-06-30T05:03:21.134Z,9.55
2023-06-30T05:04:23.402Z,10.17
2023-06-30T05:05:26.748Z,10.10
2023-06-30T05:06:29.079Z,10.08
2023-06-30T05:07:32.247Z,9.33
2023-06-30T05:08:34.474Z,9.45
2023-06-30T05:09:38.274Z,10.13
2023-06-30T05:10:40.586Z,10.33
2023-06-30T05:11:43.666Z,9.33
2023-06-30T05:12:45.837Z,9.90
2023-06-30T05:13:49.007Z,9.90
2023-06-30T05:14:51.539Z,10.00
2023-06-30T05:15:55.212Z,9.18
2023-06-30T05:16:57.565Z,9.27
2023-06-30T05:18:02.306Z,9.55
2023-06-30T05:19:04.610Z,9.67
2023-06-30T05:20:09.368Z,8.92
2023-06-30T05:21:11.559Z,9.37
2023-06-30T05:22:15.186Z,9.12
2023-06-30T05:23:17.461Z,8.75
2023-06-30T05:24:20.577Z,8.60
2023-06-30T05:25:22.716Z,8.72
2023-06-30T05:26:25.842Z,9.20
2023-06-30T05:27:28.023Z,9.03
2023-06-30T05:28:31.196Z,8.60
2023-06-30T05:29:33.532Z,9.73
2023-06-30T05:30:36.719Z,9.35
2023-06-30T05:31:38.985Z,8.87
2023-06-30T05:32:42.197Z,10.10
2023-06-30T05:33:45.797Z,10.12
2023-06-30T05:34:48.948Z,9.70
2023-06-30T05:35:52.163Z,10.15
2023-06-30T05:36:57.016Z,9.88
2023-06-30T05:38:01.163Z,9.38
2023-06-30T05:39:03.542Z,9.40
2023-06-30T05:40:08.326Z,9.70
2023-06-30T05:41:11.092Z,9.75
2023-06-30T05:42:14.268Z,9.42
2023-06-30T05:43:18.454Z,10.03
2023-06-30T05:44:21.671Z,9.70
2023-06-30T05:45:23.875Z,9.02
2023-06-30T05:46:27.108Z,8.45
2023-06-30T05:47:29.379Z,8.57
2023-06-30T05:48:32.515Z,9.00
2023-06-30T05:49:36.068Z,8.70
2023-06-30T05:50:41.435Z,9.05
2023-06-30T05:51:44.576Z,8.63
2023-06-30T05:52:47.722Z,7.83
2023-06-30T05:53:49.958Z,8.20
2023-06-30T05:54:53.221Z,9.03
2023-06-30T05:55:56.873Z,9.33
2023-06-30T05:57:00.038Z,9.20
2023-06-30T05:58:02.242Z,9.20
2023-06-30T05:59:05.968Z,9.15
2023-06-30T06:00:09.390Z,9.37
2023-06-30T06:01:12.566Z,8.65
2023-06-30T06:02:14.944Z,9.45
2023-06-30T06:03:18.349Z,9.10
2023-06-30T06:04:20.980Z,8.92
2023-06-30T06:05:25.812Z,8.58
2023-06-30T06:06:28.596Z,8.15
2023-06-30T06:07:31.804Z,8.73
2023-06-30T06:08:34.021Z,9.83
2023-06-30T06:09:37.255Z,9.77
2023-06-30T06:10:39.591Z,9.50
2023-06-30T06:11:43.567Z,9.13
2023-06-30T06:12:46.037Z,8.47
2023-06-30T06:13:49.282Z,8.12
2023-06-30T06:14:51.520Z,8.07
2023-06-30T06:15:54.767Z,8.27
2023-06-30T06:16:57.039Z,7.98
2023-06-30T06:18:00.254Z,8.23
2023-06-30T06:19:02.488Z,7.78
2023-06-30T06:20:06.491Z,7.63
2023-06-30T06:21:10.368Z,6.97
2023-06-30T06:22:13.531Z,7.77
2023-06-30T06:23:15.715Z,7.07
2023-06-30T06:24:18.863Z,7.03
2023-06-30T06:25:21.112Z,7.30
2023-06-30T06:26:24.359Z,6.53
2023-06-30T06:27:26.631Z,6.63
2023-06-30T06:28:29.782Z,6.95
2023-06-30T06:29:32.974Z,6.92
2023-06-30T06:30:35.257Z,6.90
2023-06-30T06:31:38.388Z,6.58
2023-06-30T06:32:40.677Z,6.93
2023-06-30T06:33:44.048Z,6.55
2023-06-30T06:34:47.093Z,6.48
2023-06-30T06:35:52.157Z,6.28
2023-06-30T06:36:55.748Z,6.47
2023-06-30T06:37:58.964Z,6.13
2023-06-30T06:39:03.658Z,6.22
2023-06-30T06:40:08.789Z,5.92
2023-06-30T06:41:10.966Z,5.98
2023-06-30T06:42:14.192Z,5.90
2023-06-30T06:43:16.633Z,6.15
2023-06-30T06:44:19.817Z,6.17
2023-06-30T06:45:21.992Z,5.72
2023-06-30T06:46:25.267Z,5.93
2023-06-30T06:48:05.737Z,5.43
2023-06-30T06:49:08.940Z,5.60
2023-06-30T06:50:11.326Z,5.67
2023-06-30T06:51:14.514Z,5.72
2023-06-30T06:52:18.083Z,5.78
2023-06-30T06:53:23.943Z,5.95
2023-06-30T06:54:26.154Z,5.75
2023-06-30T06:55:29.313Z,5.68
2023-06-30T06:56:32.696Z,5.57
2023-06-30T06:57:35.019Z,5.45
2023-06-30T06:58:39.224Z,4.87
2023-06-30T06:59:41.502Z,4.97
2023-06-30T07:00:45.667Z,5.18
2023-06-30T07:01:47.889Z,4.83
2023-06-30T07:02:51.301Z,4.55
2023-06-30T07:03:54.579Z,4.65
2023-06-30T07:04:56.855Z,4.65
2023-06-30T07:06:00.408Z,4.95
2023-06-30T07:07:02.608Z,4.67
2023-06-30T07:08:07.354Z,4.73
2023-06-30T07:09:10.479Z,4.90
2023-06-30T07:10:12.788Z,4.82
2023-06-30T07:11:15.925Z,5.27
2023-06-30T07:12:18.128Z,5.37
2023-06-30T07:13:23.115Z,5.17
2023-06-30T07:14:25.329Z,5.13
2023-06-30T07:15:28.702Z,4.62
2023-06-30T07:16:31.095Z,4.57
2023-06-30T07:17:34.553Z,4.67
2023-06-30T07:18:37.882Z,4.98
2023-06-30T07:19:40.290Z,4.68
2023-06-30T07:20:43.509Z,4.83
2023-06-30T07:21:45.735Z,5.07
2023-06-30T07:22:48.954Z,4.65
2023-06-30T07:23:53.652Z,4.58
2023-06-30T07:24:55.902Z,5.57
2023-06-30T07:25:59.172Z,5.93
2023-06-30T07:27:01.396Z,6.12
2023-06-30T07:28:05.075Z,6.08
2023-06-30T07:29:07.264Z,5.78
2023-06-30T07:30:10.880Z,5.42
2023-06-30T07:31:14.127Z,5.52
2023-06-30T07:32:19.080Z,5.05
2023-06-30T07:33:22.342Z,5.30
2023-06-30T07:34:24.954Z,5.63
2023-06-30T07:35:28.178Z,5.67
2023-06-30T07:36:30.789Z,5.85
2023-06-30T07:37:33.977Z,5.03
2023-06-30T07:38:36.166Z,5.15
2023-06-30T07:39:40.708Z,5.37
2023-06-30T07:40:55.052Z,4.62
2023-06-30T07:41:58.540Z,5.18
2023-06-30T07:43:01.680Z,5.18
2023-06-30T07:44:04.368Z,5.20
2023-06-30T07:45:10.295Z,4.95
2023-06-30T07:46:12.642Z,4.85
2023-06-30T07:47:15.799Z,4.88
2023-06-30T07:48:18.084Z,5.18
2023-06-30T07:49:23.116Z,5.18
2023-06-30T07:50:26.506Z,5.23
2023-06-30T07:51:28.681Z,5.17
2023-06-30T07:52:31.811Z,5.23
2023-06-30T07:53:34.777Z,5.00
2023-06-30T07:54:38.036Z,4.57
2023-06-30T07:55:41.548Z,4.55
2023-06-30T07:56:46.514Z,4.30
2023-06-30T07:57:49.299Z,4.47
2023-06-30T07:58:52.465Z,4.32
2023-06-30T07:59:56.442Z,4.30
2023-06-30T08:01:00.260Z,4.88
2023-06-30T08:02:02.565Z,5.00
2023-06-30T08:03:05.997Z,5.08
2023-06-30T08:04:08.622Z,4.65
2023-06-30T08:05:12.754Z,4.77
2023-06-30T08:06:15.166Z,5.05
2023-06-30T08:07:18.531Z,4.93
2023-06-30T08:08:21.703Z,4.77
2023-06-30T08:09:23.882Z,4.80
2023-06-30T08:10:27.022Z,5.13
2023-06-30T08:11:31.872Z,5.00
2023-06-30T08:12:35.083Z,4.75
2023-06-30T08:13:38.712Z,5.08
2023-06-30T08:14:41.960Z,5.28
2023-06-30T08:15:46.570Z,5.25
2023-06-30T08:16:51.139Z,5.52
2023-06-30T08:17:58.611Z,5.32
2023-06-30T08:19:01.154Z,5.27
2023-06-30T08:20:04.901Z,5.32
2023-06-30T08:21:07.580Z,5.40
2023-06-30T08:22:14.594Z,5.47
2023-06-30T08:23:16.911Z,5.77
2023-06-30T08:24:20.130Z,5.48
2023-06-30T08:25:24.773Z,5.63
2023-06-30T08:26:28.041Z,5.55
2023-06-30T08:27:31.999Z,5.97
2023-06-30T08:28:35.177Z,5.75
2023-06-30T08:29:37.675Z,5.60
2023-06-30T08:30:40.893Z,5.53
2023-06-30T08:31:43.180Z,5.15
2023-06-30T08:32:46.592Z,5.55
2023-06-30T08:33:48.951Z,6.22
2023-06-30T08:34:52.058Z,6.02
2023-06-30T08:35:54.206Z,6.32
2023-06-30T08:36:57.802Z,6.05
2023-06-30T08:37:59.931Z,6.02
2023-06-30T08:39:03.134Z,5.85
2023-06-30T08:40:06.653Z,5.73
2023-06-30T08:41:11.021Z,6.33
2023-06-30T08:42:16.485Z,6.35
2023-06-30T08:43:24.122Z,6.90
2023-06-30T08:44:26.506Z,6.15
2023-06-30T08:45:31.700Z,6.20
2023-06-30T08:46:34.987Z,6.23
2023-06-30T08:47:39.762Z,6.23
2023-06-30T08:48:43.168Z,6.50
2023-06-30T08:49:46.286Z,6.43
2023-06-30T08:50:50.492Z,6.42
2023-06-30T08:51:57.444Z,6.18
2023-06-30T08:52:59.996Z,6.57
2023-06-30T08:54:03.496Z,6.67
2023-06-30T08:55:06.455Z,6.42
2023-06-30T08:56:10.949Z,6.58
2023-06-30T08:57:16.375Z,6.38
2023-06-30T08:58:26.452Z,6.25
2023-06-30T08:59:29.989Z,5.95
2023-06-30T09:00:32.228Z,5.85
2023-06-30T09:01:37.436Z,5.92
2023-06-30T09:02:41.359Z,5.43
2023-06-30T09:03:45.280Z,5.62
2023-06-30T09:04:47.811Z,5.72
2023-06-30T09:05:52.595Z,4.78
2023-06-30T09:06:56.131Z,5.02
2023-06-30T09:07:58.874Z,4.77
2023-06-30T09:09:05.447Z,4.77
2023-06-30T09:10:10.849Z,4.88
2023-06-30T09:11:17.917Z,5.17
2023-06-30T09:12:20.373Z,4.98
2023-06-30T09:13:26.432Z,4.37
2023-06-30T09:14:34.637Z,4.67
2023-06-30T09:15:37.968Z,4.37
2023-06-30T09:16:41.205Z,4.42
2023-06-30T09:17:43.829Z,4.25
2023-06-30T09:18:47.843Z,4.42
2023-06-30T09:19:51.215Z,4.17
2023-06-30T09:20:54.352Z,4.18
2023-06-30T09:21:58.403Z,4.10
2023-06-30T09:23:05.503Z,4.25
2023-06-30T09:24:08.889Z,3.98
2023-06-30T09:25:41.220Z,3.85
2023-06-30T09:26:44.536Z,3.73
2023-06-30T09:27:46.781Z,4.30
2023-06-30T09:28:55.933Z,4.17
2023-06-30T09:29:58.200Z,3.87
2023-06-30T09:31:03.207Z,3.78
2023-06-30T09:32:07.293Z,3.90
2023-06-30T09:33:09.959Z,3.37
2023-06-30T09:34:14.506Z,3.55
2023-06-30T09:35:18.236Z,3.60
2023-06-30T09:36:21.898Z,3.92
2023-06-30T09:37:24.228Z,3.78
2023-06-30T09:38:29.527Z,3.45
2023-06-30T09:39:32.734Z,3.52
2023-06-30T09:40:34.920Z,3.73
2023-06-30T09:41:38.386Z,4.18
2023-06-30T09:42:41.999Z,3.78
2023-06-30T09:43:45.204Z,3.72
2023-06-30T09:44:48.869Z,3.42
2023-06-30T09:45:57.310Z,3.80
2023-06-30T09:47:00.483Z,3.70
2023-06-30T09:48:02.744Z,3.40
2023-06-30T09:49:05.999Z,3.90
2023-06-30T09:50:10.338Z,3.72
2023-06-30T09:51:16.244Z,3.68
2023-06-30T09:52:25.140Z,3.82
2023-06-30T09:53:30.203Z,3.82
2023-06-30T09:55:49.276Z,3.60
2023-06-30T09:56:58.848Z,3.62
2023-06-30T09:58:01.126Z,3.95
2023-06-30T09:59:04.300Z,3.70
2023-06-30T10:00:15.861Z,3.60
2023-06-30T10:01:25.794Z,4.00
2023-06-30T10:02:28.169Z,3.47
2023-06-30T10:03:31.658Z,3.53
2023-06-30T10:04:37.294Z,3.67
2023-06-30T10:05:40.488Z,3.68
2023-06-30T10:06:43.635Z,3.65
2023-06-30T10:07:46.003Z,3.67
2023-06-30T10:08:51.223Z,3.83
2023-06-30T10:09:55.216Z,4.02
2023-06-30T10:10:59.345Z,3.87
2023-06-30T10:12:02.590Z,3.88
2023-06-30T10:13:06.304Z,3.98
2023-06-30T10:14:08.568Z,3.68
2023-06-30T10:15:13.576Z,3.93
2023-06-30T10:16:17.933Z,3.95
2023-06-30T10:17:21.572Z,4.05
2023-06-30T10:18:25.655Z,3.68
2023-06-30T10:19:30.066Z,3.75
2023-06-30T10:20:42.994Z,3.90
2023-06-30T10:21:51.116Z,4.05
2023-06-30T10:22:53.887Z,4.10
2023-06-30T10:23:57.481Z,3.95
2023-06-30T10:25:00.452Z,3.95
2023-06-30T10:26:05.540Z,3.70
2023-06-30T10:27:08.315Z,3.65
2023-06-30T10:28:11.528Z,3.42
2023-06-30T10:29:14.893Z,3.50
2023-06-30T10:30:18.450Z,3.47
2023-06-30T10:31:22.349Z,3.28
2023-06-30T10:32:24.654Z,3.68
2023-06-30T10:33:27.963Z,3.35
2023-06-30T10:34:33.725Z,3.62
2023-06-30T10:35:36.885Z,3.62
2023-06-30T10:36:40.771Z,3.83
2023-06-30T10:37:43.520Z,4.35
2023-06-30T10:38:48.068Z,4.05
2023-06-30T10:39:50.443Z,4.28
2023-06-30T10:41:13.873Z,3.92
2023-06-30T10:42:19.780Z,3.40
2023-06-30T10:43:22.029Z,3.50
2023-06-30T10:44:38.157Z,3.23
2023-06-30T10:46:09.729Z,3.43
2023-06-30T10:47:16.278Z,3.22
2023-06-30T10:48:18.529Z,3.63
2023-06-30T10:49:24.577Z,3.43
2023-06-30T10:50:27.802Z,3.47
2023-06-30T10:51:35.371Z,3.47
2023-06-30T10:52:40.702Z,3.68
2023-06-30T10:53:46.828Z,3.52
2023-06-30T10:54:51.080Z,3.40
2023-06-30T10:55:57.049Z,3.48
2023-06-30T10:57:08.345Z,3.55
2023-06-30T10:58:11.610Z,3.52
2023-06-30T10:59:18.978Z,3.48
2023-06-30T11:00:25.733Z,3.40
2023-06-30T11:01:29.375Z,3.72
2023-06-30T11:02:34.237Z,3.40
2023-06-30T11:04:09.841Z,3.35
2023-06-30T11:05:24.260Z,3.72
2023-06-30T11:06:27.810Z,3.33
2023-06-30T11:07:31.843Z,3.50
2023-06-30T11:08:34.150Z,3.73
2023-06-30T11:10:03.778Z,3.30
2023-06-30T11:11:08.832Z,3.58
2023-06-30T11:12:11.106Z,3.45
2023-06-30T11:13:15.085Z,3.60
2023-06-30T11:14:32.199Z,3.52
2023-06-30T11:15:49.063Z,3.37
2023-06-30T11:17:07.897Z,3.43
2023-06-30T11:18:15.255Z,3.40
2023-06-30T11:19:24.462Z,3.50
2023-06-30T11:20:27.800Z,3.57
2023-06-30T11:21:32.658Z,3.73
2023-06-30T11:22:34.926Z,3.75
2023-06-30T11:23:39.737Z,3.55
2023-06-30T11:24:41.931Z,3.45
2023-06-30T11:25:45.238Z,3.57
2023-06-30T11:26:47.574Z,3.50
2023-06-30T11:27:51.122Z,3.52
2023-06-30T11:28:54.828Z,3.73
2023-06-30T11:30:00.261Z,3.63
2023-06-30T11:31:03.694Z,3.63
2023-06-30T11:32:08.053Z,3.27
2023-06-30T11:33:11.349Z,3.35
2023-06-30T11:34:16.368Z,3.52
2023-06-30T11:35:20.078Z,3.43
2023-06-30T11:36:23.298Z,3.35
2023-06-30T11:37:26.351Z,3.30
2023-06-30T11:38:29.689Z,3.57
2023-06-30T11:39:32.161Z,3.62
2023-06-30T11:40:35.360Z,3.23
2023-06-30T11:41:37.581Z,3.32
2023-06-30T11:42:41.221Z,3.28
2023-06-30T11:43:45.651Z,3.50
2023-06-30T11:44:50.240Z,3.15
2023-06-30T11:45:58.661Z,3.32
2023-06-30T11:47:02.201Z,3.63
2023-06-30T11:48:08.033Z,3.62
2023-06-30T11:49:10.690Z,3.23
2023-06-30T11:50:14.766Z,3.55
2023-06-30T11:51:19.219Z,3.58
2023-06-30T11:52:21.652Z,3.45
2023-06-30T11:53:25.129Z,3.40
2023-06-30T11:54:31.023Z,3.32
2023-06-30T11:55:34.396Z,3.32
2023-06-30T11:56:39.922Z,3.37
2023-06-30T11:57:44.604Z,3.58
2023-06-30T11:58:48.833Z,3.33
2023-06-30T11:59:52.083Z,3.53
2023-06-30T12:00:54.253Z,3.60
2023-06-30T12:01:57.561Z,3.63
2023-06-30T12:03:01.044Z,7.97
2023-06-30T12:04:36.136Z,8.27
2023-06-30T12:05:43.393Z,5.03
2023-06-30T12:06:46.957Z,3.38
2023-06-30T12:07:54.492Z,3.57
2023-06-30T12:08:59.743Z,3.27
2023-06-30T12:10:03.953Z,3.45
2023-06-30T12:11:08.222Z,4.02
2023-06-30T12:12:11.883Z,3.58
2023-06-30T12:13:14.463Z,3.50
2023-06-30T12:14:18.485Z,3.95
2023-06-30T12:15:22.975Z,3.90
2023-06-30T12:16:26.855Z,3.63
2023-06-30T12:17:30.304Z,3.38
2023-06-30T12:18:37.835Z,3.63
2023-06-30T12:19:46.906Z,3.47
2023-06-30T12:20:51.837Z,3.15
2023-06-30T12:21:55.302Z,3.72
2023-06-30T12:22:58.593Z,3.62
2023-06-30T12:24:01.989Z,3.68
2023-06-30T12:25:09.117Z,3.55
2023-06-30T12:26:12.736Z,3.63
2023-06-30T12:27:14.959Z,3.38
2023-06-30T12:28:18.720Z,3.73
2023-06-30T12:29:21.557Z,3.77
2023-06-30T12:30:24.903Z,3.80
2023-06-30T12:31:27.131Z,3.38
2023-06-30T12:32:32.249Z,3.40
2023-06-30T12:33:35.456Z,3.43
2023-06-30T12:34:38.155Z,3.52
2023-06-30T12:35:42.905Z,3.67
2023-06-30T12:36:45.435Z,3.77
2023-06-30T12:37:49.518Z,3.50
2023-06-30T12:38:51.807Z,3.73
2023-06-30T12:39:55.197Z,3.80
2023-06-30T12:40:58.695Z,3.83
2023-06-30T12:42:00.954Z,3.60
2023-06-30T12:43:04.205Z,3.52
2023-06-30T12:44:07.795Z,3.62
2023-06-30T12:45:11.656Z,3.63
2023-06-30T12:46:14.888Z,3.40
2023-06-30T12:47:17.158Z,3.42
2023-06-30T12:48:20.513Z,3.33
2023-06-30T12:49:22.887Z,4.10
2023-06-30T12:50:26.062Z,3.65
2023-06-30T12:51:29.634Z,3.42
2023-06-30T12:52:32.822Z,3.33
2023-06-30T12:53:35.069Z,3.50
2023-06-30T12:54:38.330Z,3.28
2023-06-30T12:55:41.530Z,3.38
2023-06-30T12:56:43.828Z,3.45
2023-06-30T12:57:47.001Z,3.73
2023-06-30T12:58:49.206Z,3.45
2023-06-30T12:59:52.482Z,3.45
2023-06-30T13:00:55.131Z,3.57
2023-06-30T13:01:58.328Z,3.63
2023-06-30T13:03:00.799Z,3.65
2023-06-30T13:04:05.104Z,3.32
2023-06-30T13:05:09.491Z,3.38
2023-06-30T13:06:11.779Z,3.35
2023-06-30T13:07:16.349Z,3.50
2023-06-30T13:08:18.598Z,3.48
2023-06-30T13:09:21.728Z,3.58
2023-06-30T13:10:26.409Z,3.55
2023-06-30T13:11:30.186Z,3.48
2023-06-30T13:12:33.635Z,3.27
2023-06-30T13:13:35.846Z,3.43
2023-06-30T13:14:39.046Z,3.67
2023-06-30T13:15:41.344Z,3.52
2023-06-30T13:16:44.574Z,3.57
2023-06-30T13:17:47.805Z,3.58
2023-06-30T13:18:50.077Z,3.73
2023-06-30T13:19:54.101Z,3.63
2023-06-30T13:20:56.347Z,3.63
2023-06-30T13:21:59.976Z,4.00
2023-06-30T13:24:12.850Z,3.58
2023-06-30T13:25:18.129Z,3.57
2023-06-30T13:26:20.403Z,3.17
2023-06-30T13:27:23.661Z,3.60
2023-06-30T13:28:26.029Z,3.92
2023-06-30T13:29:29.220Z,4.08
2023-06-30T13:30:32.397Z,4.63
2023-06-30T13:31:34.688Z,4.33
2023-06-30T13:32:39.352Z,4.18
2023-06-30T13:33:41.556Z,5.98
2023-06-30T13:34:45.372Z,4.12
2023-06-30T13:35:47.779Z,3.87
2023-06-30T13:36:51.143Z,3.90
2023-06-30T13:37:53.364Z,3.68
2023-06-30T13:38:59.338Z,3.72
2023-06-30T13:40:01.775Z,3.72
2023-06-30T13:41:05.015Z,3.68
2023-06-30T13:42:08.490Z,3.92
2023-06-30T13:43:11.694Z,4.08
2023-06-30T13:44:15.042Z,3.45
2023-06-30T13:45:17.384Z,3.40
2023-06-30T13:46:22.404Z,3.63
2023-06-30T13:47:25.777Z,3.55
2023-06-30T13:48:28.233Z,3.58
2023-06-30T13:49:31.538Z,3.43
2023-06-30T13:50:33.848Z,3.82
2023-06-30T13:51:37.799Z,3.97
2023-06-30T13:52:40.412Z,3.90
2023-06-30T13:53:43.644Z,3.50
2023-06-30T13:54:47.132Z,3.93
2023-06-30T13:55:50.485Z,3.63
2023-06-30T13:56:53.665Z,3.58
2023-06-30T13:57:56.900Z,3.87
2023-06-30T13:59:00.042Z,4.00
2023-06-30T14:00:02.339Z,3.65
2023-06-30T14:01:06.623Z,3.63
2023-06-30T14:02:09.822Z,3.65
2023-06-30T14:03:13.084Z,3.83
2023-06-30T14:04:16.414Z,3.50
2023-06-30T14:05:18.761Z,3.68
2023-06-30T14:06:22.068Z,3.58
2023-06-30T14:07:24.240Z,3.87